Flight Track Log - Related Links

Times and Time Zones

All times are in EDT time to prevent confusion due to time zone crossing. See the ADR705 flight status page for this flight to view local times or setup timezone preferences in your user account.

Time Position Orientation Groundspeed Altitude Reporting Facility
EDT Latitude Longitude Course Direction KTS MPH feet Rate Location/Type
Sun 09:39:00 AM 42.1640 18.9702 324° Northwest  Level Estimated
Sun 09:40:00 AM 42.2469 18.8857 323° Northwest  Level Estimated
Sun 09:41:00 AM 42.3298 18.8010 323° Northwest  Level Estimated
Sun 09:42:00 AM 42.4127 18.7161 323° Northwest  Level Estimated
Sun 09:43:00 AM 42.4954 18.6310 323° Northwest  Level Estimated
Sun 09:44:00 AM 42.5781 18.5456 323° Northwest  Level Estimated
Sun 09:45:00 AM 42.6607 18.4600 323° Northwest  Level Estimated
Sun 09:46:00 AM 42.7433 18.3742 323° Northwest  Level Estimated
Sun 09:47:00 AM 42.8258 18.2882 323° Northwest  Level Estimated
Sun 09:48:00 AM 42.9082 18.2019 323° Northwest  Level Estimated
Sun 09:49:00 AM 42.9906 18.1154 322° Northwest  Level Estimated
Sun 09:50:00 AM 43.0729 18.0286 322° Northwest  Level Estimated
Sun 09:51:00 AM 43.1552 17.9417 322° Northwest  Level Estimated
Sun 09:52:00 AM 43.2374 17.8544 322° Northwest  Level Estimated
Sun 09:53:00 AM 43.3195 17.7670 322° Northwest  Level Estimated
Sun 09:54:00 AM 43.4015 17.6793 322° Northwest  Level Estimated
Sun 09:55:00 AM 43.4835 17.5914 322° Northwest  Level Estimated
Sun 09:56:00 AM 43.5654 17.5032 322° Northwest  Level Estimated
Sun 09:57:00 AM 43.6472 17.4148 322° Northwest  Level Estimated
Sun 09:58:00 AM 43.7290 17.3262 322° Northwest  Level Estimated
Sun 09:59:00 AM 43.8107 17.2373 322° Northwest  Level Estimated
Sun 10:00:00 AM 43.8924 17.1482 322° Northwest  Level Estimated
Sun 10:01:00 AM 43.9739 17.0588 322° Northwest  Level Estimated
Sun 10:02:00 AM 44.0554 16.9692 322° Northwest  Level Estimated
Sun 10:03:00 AM 44.1369 16.8794 322° Northwest  Level Estimated
Sun 10:04:00 AM 44.2182 16.7892 322° Northwest  Level Estimated
Sun 10:05:00 AM 44.2995 16.6989 322° Northwest  Level Estimated
Sun 10:06:00 AM 44.3807 16.6083 321° Northwest  Level Estimated
Sun 10:07:00 AM 44.4618 16.5174 321° Northwest  Level Estimated
Sun 10:08:00 AM 44.5429 16.4263 321° Northwest  Level Estimated
Sun 10:09:00 AM 44.6239 16.3349 321° Northwest  Level Estimated
Sun 10:10:00 AM 44.7048 16.2433 321° Northwest  Level Estimated
Sun 10:11:00 AM 44.7857 16.1514 321° Northwest  Level Estimated
Sun 10:12:00 AM 44.8665 16.0593 321° Northwest  Level Estimated
Sun 10:13:00 AM 44.9472 15.9669 321° Northwest  Level Estimated
Sun 10:14:00 AM 45.0278 15.8743 321° Northwest  Level Estimated
Sun 10:15:00 AM 45.1083 15.7814 321° Northwest  Level Estimated
Sun 10:16:00 AM 45.1888 15.6882 321° Northwest  Level Estimated
Sun 10:17:00 AM 45.2692 15.5947 321° Northwest  Level Estimated
Sun 10:18:00 AM 45.3495 15.5010 321° Northwest  Level Estimated
Sun 10:19:00 AM 45.4298 15.4071 321° Northwest  Level Estimated
Sun 10:20:00 AM 45.5100 15.3128 321° Northwest  Level Estimated
Sun 10:21:00 AM 45.5901 15.2183 320° Northwest  Level Estimated
Sun 10:22:00 AM 45.6701 15.1235 320° Northwest  Level Estimated
Sun 10:23:00 AM 45.7500 15.0285 320° Northwest  Level Estimated
Sun 10:24:00 AM 45.8299 14.9332 320° Northwest  Level Estimated
Sun 10:25:00 AM 45.9096 14.8376 320° Northwest  Level Estimated
Sun 10:26:00 AM 45.9893 14.7417 320° Northwest  Level Estimated
Sun 10:27:00 AM 46.0690 14.6455 320° Northwest  Level Estimated
Sun 10:28:00 AM 46.1485 14.5491 320° Northwest  Level Estimated
Sun 10:29:00 AM 46.2237 14.4576 320° Northwest  Level Estimated
Sun 10:30:00 AM 46.2237 14.4576 170° South  Level Estimated
Sun 10:31:00 AM 46.2237 14.4576 170° South  Level Estimated
Sun 10:32:00 AM 46.2237 14.4576 170° South  Level Estimated
Sun 10:33:00 AM 46.2237 14.4576 170° South  Level Estimated
Sun 10:34:00 AM 46.2237 14.4576 170° South  Level Estimated
Sun 10:35:00 AM 46.2237 14.4576 170° South  Level Estimated
Sun 10:36:00 AM 46.2237 14.4576 170° South  Level Estimated
Sun 10:37:00 AM 46.2237 14.4576 170° South  Level Estimated
Sun 10:38:00 AM 46.2237 14.4576 170° South  Level Estimated
Sun 10:39:00 AM 46.2237 14.4576 170° South  Level Estimated
Sun 10:40:00 AM 46.2237 14.4576 170° South  Level Estimated
Sun 10:41:00 AM 46.2237 14.4576 170° South  Level Estimated
Sun 10:42:00 AM 46.2237 14.4576 170° South  Level Estimated
Sun 10:43:00 AM 46.2237 14.4576 170° South  Level Estimated
Sun 10:44:00 AM 46.2237 14.4576 170° South  Level Estimated
Sun 10:45:00 AM 46.2237 14.4576 170° South  Level Estimated

Login

Don't have an account? Register now (free) for customized features, flight alerts, and more!